createdAt,value
2017-11-09T00:02:33.095Z,37.25
2017-11-09T00:05:06.504Z,40.95
2017-11-09T00:07:34.585Z,41.75
2017-11-09T00:10:02.213Z,37.92
2017-11-09T00:12:29.718Z,37.05
2017-11-09T00:14:57.237Z,42.13
2017-11-09T00:17:24.764Z,37.63
2017-11-09T00:19:52.283Z,38.47
2017-11-09T00:22:19.817Z,39.35
2017-11-09T00:24:47.340Z,37.47
2017-11-09T00:27:15.310Z,37.10
2017-11-09T00:29:43.624Z,40.53
2017-11-09T00:32:11.251Z,39.08
2017-11-09T00:34:38.772Z,39.42
2017-11-09T00:37:06.310Z,40.10
2017-11-09T00:39:33.825Z,39.60
2017-11-09T00:42:01.326Z,36.08
2017-11-09T00:44:28.846Z,40.83
2017-11-09T00:46:56.381Z,38.67
2017-11-09T00:49:24.753Z,38.92
2017-11-09T00:51:52.291Z,37.08
2017-11-09T00:54:19.807Z,38.17
2017-11-09T00:56:47.323Z,39.75
2017-11-09T00:59:14.882Z,38.13
2017-11-09T01:01:43.174Z,40.63
2017-11-09T01:04:11.450Z,36.92
2017-11-09T01:06:39.268Z,42.38
2017-11-09T01:09:07.239Z,39.20
2017-11-09T01:11:34.749Z,38.45
2017-11-09T01:14:03.047Z,39.80
2017-11-09T01:16:30.554Z,41.05
2017-11-09T01:18:58.077Z,42.13
2017-11-09T01:21:25.603Z,44.53
2017-11-09T01:23:53.873Z,42.17
2017-11-09T01:26:22.160Z,45.17
2017-11-09T01:28:50.458Z,43.92
2017-11-09T01:31:17.981Z,45.95
2017-11-09T01:33:46.020Z,43.30
2017-11-09T01:36:13.988Z,48.10
2017-11-09T01:38:41.585Z,44.58
2017-11-09T01:41:09.869Z,43.50
2017-11-09T01:43:38.148Z,44.53
2017-11-09T01:46:06.423Z,44.10
2017-11-09T01:48:34.726Z,43.60
2017-11-09T01:51:02.237Z,43.80
2017-11-09T01:53:29.745Z,38.72
2017-11-09T01:55:57.395Z,41.45
2017-11-09T01:58:25.756Z,42.08
2017-11-09T02:00:54.040Z,41.83
2017-11-09T02:03:21.586Z,46.20
2017-11-09T02:05:49.878Z,43.75
2017-11-09T02:08:17.400Z,43.80
2017-11-09T02:10:45.106Z,43.10
2017-11-09T02:13:12.627Z,41.20
2017-11-09T02:15:40.125Z,45.42
2017-11-09T02:18:07.649Z,44.47
2017-11-09T02:20:35.948Z,40.90
2017-11-09T02:23:03.645Z,43.17
2017-11-09T02:25:31.163Z,39.75
2017-11-09T02:27:59.478Z,39.10
2017-11-09T02:30:27.007Z,41.95
2017-11-09T02:32:54.558Z,38.75
2017-11-09T02:35:22.875Z,37.60
2017-11-09T02:37:50.964Z,37.00
2017-11-09T02:40:18.481Z,38.50
2017-11-09T02:42:46.006Z,40.90
2017-11-09T02:45:13.523Z,39.75
2017-11-09T02:47:41.024Z,38.28
2017-11-09T02:50:08.546Z,38.40
2017-11-09T02:52:36.064Z,38.78
2017-11-09T02:55:03.570Z,37.75
2017-11-09T02:57:31.183Z,36.13
2017-11-09T02:59:58.714Z,38.85
2017-11-09T03:02:26.245Z,39.67
2017-11-09T03:04:53.769Z,43.72
2017-11-09T03:07:21.288Z,43.40
2017-11-09T03:09:48.802Z,43.72
2017-11-09T03:12:16.337Z,43.20
2017-11-09T03:14:43.881Z,45.92
2017-11-09T03:17:11.377Z,47.95
2017-11-09T03:19:38.913Z,47.90
2017-11-09T03:22:07.274Z,43.50
2017-11-09T03:24:35.562Z,46.22
2017-11-09T03:27:03.399Z,43.40
2017-11-09T03:29:30.903Z,44.33
2017-11-09T03:31:58.441Z,48.53
2017-11-09T03:34:26.777Z,48.05
2017-11-09T03:36:54.314Z,46.47
2017-11-09T03:39:21.849Z,47.95
2017-11-09T03:41:49.792Z,48.90
2017-11-09T03:44:18.220Z,45.25
2017-11-09T03:46:47.300Z,44.92
2017-11-09T03:49:15.606Z,46.63
2017-11-09T03:51:43.962Z,45.47
2017-11-09T03:54:11.491Z,47.70
2017-11-09T03:56:39.811Z,49.70
2017-11-09T03:59:07.314Z,45.10
2017-11-09T04:01:34.802Z,42.40
2017-11-09T04:04:02.349Z,43.80
2017-11-09T04:06:30.645Z,47.17
2017-11-09T04:08:58.173Z,44.08
2017-11-09T04:11:25.713Z,42.00
2017-11-09T04:13:53.215Z,42.25
2017-11-09T04:16:20.727Z,42.53
2017-11-09T04:18:48.257Z,41.30
2017-11-09T04:21:15.763Z,45.00
2017-11-09T04:23:44.056Z,44.60
2017-11-09T04:26:12.350Z,42.00
2017-11-09T04:28:39.869Z,46.37
2017-11-09T04:31:07.919Z,44.53
2017-11-09T04:33:35.530Z,46.30
2017-11-09T04:36:03.065Z,46.25
2017-11-09T04:38:30.569Z,52.45
2017-11-09T04:40:58.101Z,50.30
2017-11-09T04:43:25.642Z,47.53
2017-11-09T04:45:53.929Z,49.53
2017-11-09T04:48:22.230Z,47.38
2017-11-09T04:50:49.756Z,48.30
2017-11-09T04:53:17.272Z,49.13
2017-11-09T04:55:44.853Z,51.92
2017-11-09T04:58:12.380Z,51.30
2017-11-09T05:00:39.881Z,53.33
2017-11-09T05:03:07.433Z,52.15
2017-11-09T05:05:34.937Z,52.35
2017-11-09T05:08:02.456Z,48.60
2017-11-09T05:10:29.982Z,54.67
2017-11-09T05:12:57.477Z,55.28
2017-11-09T05:15:24.985Z,54.22
2017-11-09T05:17:52.518Z,56.40
2017-11-09T05:20:20.787Z,53.72
2017-11-09T05:22:49.133Z,61.88
2017-11-09T05:25:16.661Z,58.50
2017-11-09T05:27:45.570Z,54.55
2017-11-09T05:30:13.128Z,54.13
2017-11-09T05:32:40.674Z,52.55
2017-11-09T05:35:09.609Z,53.33
2017-11-09T05:37:37.176Z,55.83
2017-11-09T05:40:05.500Z,49.20
2017-11-09T05:42:33.040Z,52.60
2017-11-09T05:45:00.568Z,53.42
2017-11-09T05:47:28.089Z,54.75
2017-11-09T05:49:55.599Z,53.38
2017-11-09T05:52:23.892Z,53.87
2017-11-09T05:54:52.103Z,50.90
2017-11-09T05:57:19.713Z,48.33
2017-11-09T05:59:48.005Z,46.70
2017-11-09T06:02:16.020Z,52.50
2017-11-09T06:04:44.297Z,55.10
2017-11-09T06:07:11.889Z,50.05
2017-11-09T06:09:40.190Z,48.33
2017-11-09T06:12:07.718Z,49.53
2017-11-09T06:14:35.263Z,49.67
2017-11-09T06:17:02.785Z,52.00
2017-11-09T06:19:30.469Z,50.47
2017-11-09T06:21:58.092Z,53.00
2017-11-09T06:24:25.619Z,50.67
2017-11-09T06:26:53.124Z,52.10
2017-11-09T06:29:22.170Z,57.58
2017-11-09T06:31:49.723Z,50.33
2017-11-09T06:34:18.362Z,47.00
2017-11-09T06:36:45.929Z,52.45
2017-11-09T06:39:13.833Z,57.58
2017-11-09T06:41:42.396Z,47.72
2017-11-09T06:44:09.898Z,52.58
2017-11-09T06:46:38.209Z,51.97
2017-11-09T06:49:05.736Z,53.17
2017-11-09T06:51:34.007Z,54.95
2017-11-09T06:54:03.245Z,55.88
2017-11-09T06:56:30.784Z,54.88
2017-11-09T06:58:59.225Z,50.53
2017-11-09T07:01:26.754Z,52.60
2017-11-09T07:03:54.272Z,52.97
2017-11-09T07:06:22.552Z,54.28
2017-11-09T07:08:51.053Z,52.03
2017-11-09T07:11:18.841Z,52.05
2017-11-09T07:13:46.779Z,51.13
2017-11-09T07:16:14.310Z,60.92
2017-11-09T07:18:42.605Z,59.28
2017-11-09T07:21:10.132Z,51.10
2017-11-09T07:23:37.644Z,54.35
2017-11-09T07:26:05.189Z,52.95
2017-11-09T07:28:32.694Z,57.55
2017-11-09T07:31:00.301Z,54.83
2017-11-09T07:33:27.857Z,55.03
2017-11-09T07:35:55.361Z,56.88
2017-11-09T07:38:22.866Z,50.38
2017-11-09T07:40:51.147Z,51.45
2017-11-09T07:43:19.737Z,54.78
2017-11-09T07:45:47.256Z,51.80
2017-11-09T07:48:14.805Z,52.88
2017-11-09T07:50:42.309Z,52.30
2017-11-09T07:53:10.718Z,56.70
2017-11-09T07:55:38.297Z,56.63
2017-11-09T07:58:07.066Z,55.17
2017-11-09T08:00:34.602Z,58.13
2017-11-09T08:03:02.146Z,59.28
2017-11-09T08:05:30.429Z,55.10
2017-11-09T08:07:58.698Z,52.90
2017-11-09T08:10:26.999Z,56.85
2017-11-09T08:12:54.522Z,53.35
2017-11-09T08:15:22.483Z,56.15
2017-11-09T08:17:50.189Z,54.28
2017-11-09T08:20:18.685Z,51.83
2017-11-09T08:22:46.213Z,50.50
2017-11-09T08:25:15.981Z,52.50
2017-11-09T08:27:48.179Z,53.85
2017-11-09T08:30:17.750Z,51.75
2017-11-09T08:32:47.700Z,55.83
2017-11-09T08:35:15.978Z,54.05
2017-11-09T08:37:44.298Z,51.28
2017-11-09T08:40:11.816Z,56.80
2017-11-09T08:42:40.109Z,55.55
2017-11-09T08:45:07.654Z,54.80
2017-11-09T08:47:36.957Z,51.05
2017-11-09T08:50:05.065Z,54.08
2017-11-09T08:52:33.371Z,54.92
2017-11-09T08:55:01.667Z,54.15
2017-11-09T08:57:29.166Z,51.92
2017-11-09T08:59:56.714Z,50.78
2017-11-09T09:02:24.683Z,51.45
2017-11-09T09:04:52.198Z,49.78
2017-11-09T09:07:19.756Z,54.47
2017-11-09T09:09:48.409Z,50.50
2017-11-09T09:12:15.964Z,49.45
2017-11-09T09:14:43.526Z,47.95
2017-11-09T09:17:11.054Z,51.58
2017-11-09T09:19:39.332Z,48.55
2017-11-09T09:22:08.565Z,50.08
2017-11-09T09:24:37.572Z,49.13
2017-11-09T09:27:11.042Z,46.20
2017-11-09T09:29:54.462Z,49.58
2017-11-09T09:32:22.899Z,51.03
2017-11-09T09:34:50.877Z,46.30
2017-11-09T09:37:30.442Z,50.75
2017-11-09T09:40:02.693Z,46.00
2017-11-09T09:42:30.244Z,47.25
2017-11-09T09:44:57.780Z,46.60
2017-11-09T09:47:26.940Z,45.40
2017-11-09T09:49:54.985Z,44.75
2017-11-09T09:52:23.583Z,46.47
2017-11-09T09:54:52.054Z,49.38
2017-11-09T09:57:20.345Z,43.22
2017-11-09T09:59:47.854Z,43.65
2017-11-09T10:02:15.365Z,48.33
2017-11-09T10:04:43.152Z,45.50
2017-11-09T10:07:12.002Z,47.45
2017-11-09T10:09:41.449Z,50.50
2017-11-09T10:12:09.025Z,46.22
2017-11-09T10:14:36.617Z,48.15
2017-11-09T10:17:04.125Z,50.38
2017-11-09T10:19:31.649Z,48.97
2017-11-09T10:21:59.944Z,47.22
2017-11-09T10:24:29.281Z,50.88
2017-11-09T10:26:57.744Z,47.38
2017-11-09T10:29:25.560Z,48.38
2017-11-09T10:31:53.226Z,43.97
2017-11-09T10:34:21.546Z,47.53
2017-11-09T10:36:49.066Z,45.83
2017-11-09T10:39:16.962Z,43.58
2017-11-09T10:41:44.525Z,39.90
2017-11-09T10:44:12.030Z,44.90
2017-11-09T10:46:39.608Z,43.03
2017-11-09T10:49:07.480Z,45.47
2017-11-09T10:51:35.333Z,47.85
2017-11-09T10:54:03.010Z,48.20
2017-11-09T10:56:31.342Z,44.88
2017-11-09T10:58:58.850Z,45.20
2017-11-09T11:01:27.119Z,47.15
2017-11-09T11:03:55.436Z,45.67
2017-11-09T11:06:22.964Z,47.22
2017-11-09T11:08:50.474Z,44.92
2017-11-09T11:11:18.011Z,43.70
2017-11-09T11:13:45.609Z,42.95
2017-11-09T11:16:13.114Z,45.60
2017-11-09T11:18:40.684Z,40.20
2017-11-09T11:21:08.198Z,42.78
2017-11-09T11:23:35.740Z,44.90
2017-11-09T11:26:03.716Z,41.83
2017-11-09T11:28:31.850Z,40.47
2017-11-09T11:30:59.715Z,38.10
2017-11-09T11:33:27.251Z,45.08
2017-11-09T11:35:54.988Z,43.08
2017-11-09T11:38:22.559Z,41.80
2017-11-09T11:40:50.873Z,43.97
2017-11-09T11:43:18.392Z,39.63
2017-11-09T11:45:46.670Z,40.15
2017-11-09T11:48:14.988Z,39.05
2017-11-09T11:50:42.505Z,36.00
2017-11-09T11:53:10.057Z,36.60
2017-11-09T11:55:39.496Z,35.97
2017-11-09T11:58:07.081Z,33.73
2017-11-09T12:00:34.592Z,34.60
2017-11-09T12:03:02.908Z,36.33
2017-11-09T12:05:30.428Z,38.83
2017-11-09T12:07:59.473Z,40.00
2017-11-09T12:10:27.359Z,38.13
2017-11-09T12:12:54.927Z,37.73
2017-11-09T12:15:22.457Z,38.60
2017-11-09T12:17:50.013Z,42.20
2017-11-09T12:20:17.547Z,42.60
2017-11-09T12:22:45.111Z,42.72
2017-11-09T12:25:12.651Z,44.38
2017-11-09T12:27:40.873Z,41.63
2017-11-09T12:30:09.265Z,43.17
2017-11-09T12:32:37.621Z,44.22
2017-11-09T12:35:05.149Z,44.15
2017-11-09T12:37:32.963Z,44.10
2017-11-09T12:40:01.321Z,45.30
2017-11-09T12:42:28.848Z,47.67
2017-11-09T12:44:56.847Z,46.72
2017-11-09T12:47:24.482Z,44.13
2017-11-09T12:49:52.013Z,44.47
2017-11-09T12:52:20.285Z,45.60
2017-11-09T12:54:47.815Z,45.40
2017-11-09T12:57:15.336Z,48.70
2017-11-09T12:59:42.861Z,48.53
2017-11-09T13:02:10.406Z,45.72
2017-11-09T13:04:37.917Z,46.10
2017-11-09T13:07:05.469Z,42.33
2017-11-09T13:09:33.030Z,41.90
2017-11-09T13:12:00.550Z,47.03
2017-11-09T13:14:28.070Z,43.63
2017-11-09T13:16:55.619Z,42.78
2017-11-09T13:19:38.038Z,39.90
2017-11-09T13:22:05.603Z,39.35
2017-11-09T13:24:33.455Z,40.12
2017-11-09T13:27:01.205Z,40.22
2017-11-09T13:29:28.796Z,37.45
2017-11-09T13:31:57.078Z,37.63
2017-11-09T13:34:24.585Z,39.35
2017-11-09T13:36:52.137Z,37.08
2017-11-09T13:39:20.436Z,38.08
2017-11-09T13:41:47.980Z,40.12
2017-11-09T13:44:15.545Z,36.75
2017-11-09T13:46:43.089Z,37.40
2017-11-09T13:49:11.382Z,39.58
2017-11-09T13:51:38.930Z,39.00
2017-11-09T13:54:08.153Z,41.40
2017-11-09T13:56:35.691Z,39.38
2017-11-09T13:59:03.247Z,36.25
2017-11-09T14:01:32.074Z,39.25
2017-11-09T14:04:00.262Z,40.97
2017-11-09T14:06:27.807Z,35.33
2017-11-09T14:08:55.328Z,38.00
2017-11-09T14:11:23.639Z,39.38
2017-11-09T14:13:51.189Z,35.10
2017-11-09T14:16:18.761Z,38.13
2017-11-09T14:18:46.937Z,37.15
2017-11-09T14:21:14.719Z,32.90
2017-11-09T14:23:43.020Z,34.65
2017-11-09T14:26:10.556Z,31.90
2017-11-09T14:28:38.104Z,30.08
2017-11-09T14:31:05.629Z,31.42
2017-11-09T14:33:33.337Z,35.85
2017-11-09T14:36:00.885Z,31.85
2017-11-09T14:38:31.305Z,37.15
2017-11-09T14:40:58.827Z,36.83
2017-11-09T14:43:26.394Z,36.45
2017-11-09T14:45:53.912Z,36.25
2017-11-09T14:48:21.501Z,38.85
2017-11-09T14:50:49.822Z,36.97
2017-11-09T14:53:17.351Z,38.55
2017-11-09T14:55:44.892Z,35.72
2017-11-09T14:58:12.491Z,36.78
2017-11-09T15:00:40.752Z,36.45
2017-11-09T15:03:08.276Z,37.45
2017-11-09T15:05:35.848Z,35.75
2017-11-09T15:08:04.164Z,37.28
2017-11-09T15:10:31.670Z,36.58
2017-11-09T15:13:00.790Z,35.47
2017-11-09T15:15:28.370Z,32.17
2017-11-09T15:17:55.882Z,37.35
2017-11-09T15:20:24.135Z,34.67
2017-11-09T15:22:51.674Z,34.30
2017-11-09T15:25:19.214Z,38.80
2017-11-09T15:27:46.756Z,33.58
2017-11-09T15:30:14.284Z,34.63
2017-11-09T15:32:41.820Z,35.70
2017-11-09T15:35:11.254Z,35.80
2017-11-09T15:37:38.777Z,35.20
2017-11-09T15:40:06.309Z,37.20
2017-11-09T15:42:33.868Z,34.25
2017-11-09T15:45:01.384Z,36.80
2017-11-09T15:47:28.902Z,32.65
2017-11-09T15:49:56.914Z,36.13
2017-11-09T15:52:24.610Z,37.15
2017-11-09T15:54:52.887Z,37.17
2017-11-09T15:57:21.195Z,38.63
2017-11-09T15:59:48.749Z,36.13
2017-11-09T16:02:16.276Z,37.15
2017-11-09T16:04:44.591Z,37.65
2017-11-09T16:07:18.004Z,37.70
2017-11-09T16:09:45.590Z,38.50
2017-11-09T16:12:13.933Z,37.88
2017-11-09T16:14:41.483Z,38.97
2017-11-09T16:17:09.080Z,38.17
2017-11-09T16:19:37.582Z,37.55
2017-11-09T16:22:05.115Z,37.83
2017-11-09T16:24:32.712Z,40.12
2017-11-09T16:27:00.333Z,40.17
2017-11-09T16:29:31.140Z,38.30
2017-11-09T16:31:58.917Z,40.38
2017-11-09T16:34:26.426Z,34.92
2017-11-09T16:36:54.746Z,39.33
2017-11-09T16:39:22.529Z,37.28
2017-11-09T16:41:50.317Z,34.97
2017-11-09T16:44:18.430Z,34.00
2017-11-09T16:46:45.991Z,37.65
2017-11-09T16:49:13.502Z,36.28
2017-11-09T16:51:41.757Z,36.28
2017-11-09T16:54:09.272Z,36.13
2017-11-09T16:56:37.722Z,35.03
2017-11-09T16:59:06.072Z,38.40
2017-11-09T17:01:33.712Z,37.75
2017-11-09T17:04:01.241Z,36.47
2017-11-09T17:06:29.645Z,35.28
2017-11-09T17:08:57.231Z,34.13
2017-11-09T17:11:24.738Z,36.35
2017-11-09T17:13:53.030Z,35.13
2017-11-09T17:16:20.547Z,38.38
2017-11-09T17:18:48.756Z,35.70
2017-11-09T17:21:16.305Z,36.25
2017-11-09T17:23:44.594Z,35.10
2017-11-09T17:26:12.394Z,34.72
2017-11-09T17:28:40.273Z,38.72
2017-11-09T17:31:07.806Z,35.75
2017-11-09T17:33:35.306Z,36.25
2017-11-09T17:36:02.846Z,34.85
2017-11-09T17:38:30.350Z,35.45
2017-11-09T17:40:58.713Z,37.38
2017-11-09T17:43:27.096Z,34.38
2017-11-09T17:45:54.618Z,31.17
2017-11-09T17:48:22.712Z,29.90
2017-11-09T17:50:50.830Z,31.02
2017-11-09T17:53:25.641Z,31.50
2017-11-09T17:55:53.877Z,27.83
2017-11-09T17:58:21.454Z,29.10
2017-11-09T18:00:50.134Z,29.42
2017-11-09T18:03:17.850Z,27.25
2017-11-09T18:05:45.486Z,28.65
2017-11-09T18:08:13.803Z,29.95
2017-11-09T18:10:41.502Z,28.65
2017-11-09T18:13:09.192Z,28.15
2017-11-09T18:15:37.036Z,27.60
2017-11-09T18:18:04.609Z,29.35
2017-11-09T18:20:32.987Z,26.17
2017-11-09T18:23:02.464Z,30.90
2017-11-09T18:25:30.844Z,28.62
2017-11-09T18:27:58.519Z,31.48
2017-11-09T18:30:26.200Z,30.08
2017-11-09T18:32:53.761Z,28.52
2017-11-09T18:35:22.757Z,30.60
2017-11-09T18:37:50.669Z,26.60
2017-11-09T18:40:18.211Z,24.25
2017-11-09T18:42:45.707Z,19.20
2017-11-09T18:45:13.389Z,19.23
2017-11-09T18:47:40.965Z,19.40
2017-11-09T18:50:08.468Z,20.00
2017-11-09T18:52:36.021Z,16.17
2017-11-09T18:55:03.590Z,14.48
2017-11-09T18:57:31.320Z,15.82
2017-11-09T18:59:58.944Z,18.02
2017-11-09T19:02:27.476Z,16.73
2017-11-09T19:04:55.342Z,17.80
2017-11-09T19:07:23.222Z,22.40
2017-11-09T19:09:51.256Z,25.10
2017-11-09T19:12:18.993Z,26.90
2017-11-09T19:14:47.512Z,26.75
2017-11-09T19:17:16.143Z,21.27
2017-11-09T19:19:43.899Z,20.48
2017-11-09T19:22:11.538Z,21.30
2017-11-09T19:24:39.158Z,21.58
2017-11-09T19:27:07.134Z,22.70
2017-11-09T19:29:35.151Z,23.08
2017-11-09T19:32:03.034Z,24.23
2017-11-09T19:34:30.765Z,23.30
2017-11-09T19:36:58.427Z,24.05
2017-11-09T19:39:26.250Z,24.80
2017-11-09T19:41:53.882Z,25.20
2017-11-09T19:44:21.720Z,26.90
2017-11-09T19:46:50.449Z,29.80
2017-11-09T19:49:18.073Z,28.95
2017-11-09T19:51:45.757Z,29.95
2017-11-09T19:54:14.128Z,31.05
2017-11-09T19:56:41.811Z,33.10
2017-11-09T19:59:09.692Z,35.33
2017-11-09T20:01:37.457Z,34.13
2017-11-09T20:04:05.157Z,33.58
2017-11-09T20:06:32.684Z,33.13
2017-11-09T20:09:00.963Z,32.60
2017-11-09T20:11:29.297Z,36.30
2017-11-09T20:13:57.001Z,35.78
2017-11-09T20:16:24.889Z,37.63
2017-11-09T20:18:52.496Z,37.05
2017-11-09T20:21:20.224Z,37.45
2017-11-09T20:23:47.915Z,37.85
2017-11-09T20:26:15.564Z,38.40
2017-11-09T20:28:43.118Z,42.50
2017-11-09T20:31:10.641Z,38.70
2017-11-09T20:33:40.690Z,40.28
2017-11-09T20:36:08.220Z,37.47
2017-11-09T20:38:36.834Z,41.22
2017-11-09T20:41:04.334Z,39.35
2017-11-09T20:43:31.875Z,41.20
2017-11-09T20:45:59.394Z,39.63
2017-11-09T20:48:27.075Z,34.90
2017-11-09T20:50:55.617Z,36.63
2017-11-09T20:53:23.294Z,36.50
2017-11-09T20:55:51.568Z,38.30
2017-11-09T20:58:19.872Z,38.83
2017-11-09T21:00:47.374Z,39.10
2017-11-09T21:03:14.907Z,38.13
2017-11-09T21:05:42.448Z,38.38
2017-11-09T21:08:09.972Z,39.38
2017-11-09T21:10:38.264Z,38.95
2017-11-09T21:13:06.592Z,43.22
2017-11-09T21:15:34.277Z,41.80
2017-11-09T21:18:01.808Z,40.45
2017-11-09T21:20:29.552Z,44.00
2017-11-09T21:22:57.317Z,42.60
2017-11-09T21:25:24.966Z,42.03
2017-11-09T21:27:52.469Z,44.53
2017-11-09T21:30:20.301Z,42.95
2017-11-09T21:32:48.638Z,45.70
2017-11-09T21:35:17.098Z,41.83
2017-11-09T21:37:44.704Z,42.88
2017-11-09T21:40:12.244Z,43.20
2017-11-09T21:42:40.661Z,43.38
2017-11-09T21:45:08.186Z,45.42
2017-11-09T21:47:36.458Z,44.30
2017-11-09T21:50:04.736Z,47.53
2017-11-09T21:52:33.051Z,49.13
2017-11-09T21:55:01.025Z,46.92
2017-11-09T21:57:29.364Z,42.53
2017-11-09T21:59:57.845Z,45.20
2017-11-09T22:02:25.409Z,44.70
2017-11-09T22:04:52.945Z,40.67
2017-11-09T22:07:21.257Z,44.97
2017-11-09T22:09:48.788Z,42.10
2017-11-09T22:12:17.085Z,41.70
2017-11-09T22:14:44.631Z,40.90
2017-11-09T22:17:12.919Z,42.60
2017-11-09T22:19:40.428Z,40.72
2017-11-09T22:22:07.974Z,42.42
2017-11-09T22:24:35.489Z,40.63
2017-11-09T22:27:03.777Z,42.20
2017-11-09T22:29:31.306Z,42.90
2017-11-09T22:31:58.824Z,45.22
2017-11-09T22:34:26.333Z,43.58
2017-11-09T22:36:54.659Z,44.67
2017-11-09T22:39:22.169Z,45.22
2017-11-09T22:41:50.461Z,41.03
2017-11-09T22:44:18.005Z,43.17
2017-11-09T22:46:46.297Z,43.72
2017-11-09T22:49:13.810Z,44.03
2017-11-09T22:51:41.392Z,43.65
2017-11-09T22:54:08.912Z,44.60
2017-11-09T22:56:36.415Z,41.15
2017-11-09T22:59:03.929Z,39.95
2017-11-09T23:01:31.453Z,38.05
2017-11-09T23:03:58.959Z,41.40
2017-11-09T23:06:26.520Z,41.13
2017-11-09T23:08:54.030Z,41.95
2017-11-09T23:11:21.733Z,39.55
2017-11-09T23:13:49.258Z,42.80
2017-11-09T23:16:16.775Z,40.10
2017-11-09T23:18:44.296Z,39.15
2017-11-09T23:21:12.601Z,36.78
2017-11-09T23:23:40.122Z,38.72
2017-11-09T23:26:07.625Z,36.55
2017-11-09T23:28:35.153Z,37.28
2017-11-09T23:31:02.664Z,38.17
2017-11-09T23:33:30.929Z,35.38
2017-11-09T23:35:59.229Z,38.05
2017-11-09T23:38:26.733Z,33.97
2017-11-09T23:40:54.255Z,36.35
2017-11-09T23:43:21.777Z,37.90
2017-11-09T23:45:49.306Z,37.40
2017-11-09T23:48:16.837Z,36.83
2017-11-09T23:50:45.272Z,36.90
2017-11-09T23:53:12.793Z,37.90
2017-11-09T23:55:40.341Z,38.33
2017-11-09T23:58:07.836Z,36.90
